Time;durP1;ratioP1;P1;durP2;ratioP2;P2;SDS_P1;SDS_P2;PMS_P1;PMS_P2;Temp;Humidity;BMP_temperature;BMP_pressure;BME280_temperature;BME280_humidity;BME280_pressure;Samples;Min_cycle;Max_cycle;Signal;HPM_P1;HPM_P2
2022/04/19 00:02:53;;;;;;;3.10;1.83;;;10.20;67.20;;;;;;10438950;28;20220;-72
2022/04/19 00:07:54;;;;;;;1.77;1.60;;;10.30;66.10;;;;;;10431517;28;20224;-73
2022/04/19 00:13:02;;;;;;;3.20;1.93;;;10.40;65.70;;;;;;10431801;28;20208;-73
2022/04/19 00:18:04;;;;;;;3.37;1.80;;;10.40;67.60;;;;;;10422501;28;20213;-71
2022/04/19 00:23:09;;;;;;;3.27;1.63;;;10.20;67.60;;;;;;10449308;28;20235;-72
2022/04/19 00:28:11;;;;;;;2.63;1.87;;;10.20;66.80;;;;;;10410252;28;20752;-70
2022/04/19 00:33:12;;;;;;;2.60;2.23;;;10.20;66.70;;;;;;10417369;28;20216;-71
2022/04/19 00:38:13;;;;;;;3.00;2.07;;;10.30;66.10;;;;;;10435140;28;20319;-71
2022/04/19 00:43:18;;;;;;;2.23;1.67;;;10.40;66.20;;;;;;10434658;28;20231;-72
2022/04/19 00:48:21;;;;;;;3.03;2.00;;;10.30;70.40;;;;;;10410741;28;20225;-72
2022/04/19 00:53:24;;;;;;;2.93;2.23;;;10.00;73.20;;;;;;10435246;28;20224;-69
2022/04/19 00:58:25;;;;;;;2.63;2.43;;;9.70;75.40;;;;;;10427086;28;20285;-70
2022/04/19 01:03:25;;;;;;;3.60;3.13;;;9.50;77.50;;;;;;10426222;28;20319;-70
2022/04/19 01:08:28;;;;;;;3.67;2.53;;;9.30;79.30;;;;;;10435603;28;20228;-69
2022/04/19 01:13:29;;;;;;;3.83;2.67;;;9.20;79.30;;;;;;10416836;28;20291;-69
2022/04/19 01:18:30;;;;;;;3.23;2.43;;;9.00;80.00;;;;;;10437801;28;20307;-70
2022/04/19 01:23:31;;;;;;;4.13;3.23;;;8.90;80.30;;;;;;10434456;28;20220;-69
2022/04/19 01:28:34;;;;;;;2.40;2.20;;;8.80;82.50;;;;;;10434810;28;20275;-70
2022/04/19 01:33:35;;;;;;;4.23;2.60;;;8.60;83.00;;;;;;10437403;28;20690;-70
2022/04/19 01:38:35;;;;;;;6.37;3.80;;;8.50;84.40;;;;;;10413353;28;20255;-71
2022/04/19 01:43:36;;;;;;;3.17;2.53;;;8.30;86.50;;;;;;10428139;28;20220;-71
2022/04/19 01:48:38;;;;;;;4.73;2.40;;;8.20;87.80;;;;;;10415780;28;20227;-73
2022/04/19 01:53:40;;;;;;;4.10;2.37;;;8.20;88.50;;;;;;10434214;28;20220;-74
2022/04/19 01:58:41;;;;;;;4.00;2.80;;;8.10;88.00;;;;;;10411556;28;20243;-72
2022/04/19 02:03:42;;;;;;;3.13;2.30;;;8.10;87.30;;;;;;10426080;28;20316;-72
2022/04/19 02:08:43;;;;;;;5.47;2.40;;;8.10;87.80;;;;;;10433535;28;20306;-73
2022/04/19 02:13:44;;;;;;;2.80;2.50;;;8.10;88.50;;;;;;10428000;28;20215;-70
2022/04/19 02:18:44;;;;;;;4.13;2.63;;;8.00;88.30;;;;;;10416507;28;20228;-71
2022/04/19 02:23:45;;;;;;;3.57;2.47;;;8.00;87.50;;;;;;10419937;28;20673;-68
2022/04/19 02:28:48;;;;;;;3.60;2.57;;;8.00;88.50;;;;;;10436251;28;20229;-69
2022/04/19 02:33:49;;;;;;;3.97;2.90;;;7.90;88.50;;;;;;10435348;28;20228;-70
2022/04/19 02:38:49;;;;;;;4.73;2.70;;;7.90;88.00;;;;;;10436812;28;20683;-71
2022/04/19 02:43:50;;;;;;;4.00;2.57;;;8.00;87.90;;;;;;10436094;28;20287;-70
2022/04/19 02:48:50;;;;;;;3.07;2.23;;;7.90;88.30;;;;;;10436418;28;20319;-70
2022/04/19 02:53:53;;;;;;;4.33;2.40;;;7.90;87.90;;;;;;10432220;28;20288;-70
2022/04/19 02:58:53;;;;;;;3.33;2.20;;;7.80;88.40;;;;;;10436199;28;20850;-70
2022/04/19 03:03:54;;;;;;;5.43;2.60;;;7.80;89.00;;;;;;10418179;28;20388;-70
2022/04/19 03:08:55;;;;;;;4.97;2.27;;;7.80;89.50;;;;;;10445384;28;20216;-71
2022/04/19 03:13:56;;;;;;;5.63;2.20;;;7.80;89.40;;;;;;10444032;28;20224;-70
2022/04/19 03:18:56;;;;;;;2.53;2.20;;;7.80;89.30;;;;;;10444964;28;20234;-71
2022/04/19 03:29:16;;;;;;;5.77;2.73;;;7.80;89.40;;;;;;10437577;28;20227;-71
2022/04/19 03:34:18;;;;;;;5.07;2.47;;;7.80;89.80;;;;;;10418686;28;20217;-71
2022/04/19 03:39:19;;;;;;;4.00;2.53;;;7.70;90.30;;;;;;10419684;28;20630;-71
2022/04/19 03:44:25;;;;;;;2.93;2.40;;;7.70;90.50;;;;;;10438132;28;20236;-70
2022/04/19 03:49:26;;;;;;;7.60;2.93;;;7.70;90.70;;;;;;10437892;28;20317;-70
2022/04/19 03:54:27;;;;;;;4.37;3.10;;;7.60;91.70;;;;;;10430021;28;20279;-71
2022/04/19 03:59:27;;;;;;;4.10;3.07;;;7.50;92.10;;;;;;10437799;28;20220;-70
2022/04/19 04:04:30;;;;;;;4.63;3.13;;;7.40;93.10;;;;;;10444415;28;20330;-70
2022/04/19 04:09:32;;;;;;;2.97;2.53;;;7.40;93.10;;;;;;10436943;28;20303;-70
2022/04/19 04:14:33;;;;;;;9.50;3.97;;;7.40;92.80;;;;;;10438256;28;20204;-70
2022/04/19 04:19:33;;;;;;;5.33;2.40;;;7.40;92.70;;;;;;10427307;28;20274;-70
2022/04/19 04:24:34;;;;;;;5.43;2.90;;;7.40;92.20;;;;;;10426696;28;20345;-70
2022/04/19 04:29:36;;;;;;;5.17;2.70;;;7.30;92.50;;;;;;10435261;28;20908;-70
2022/04/19 04:34:37;;;;;;;5.03;3.00;;;7.30;93.20;;;;;;10426750;28;20701;-70
2022/04/19 04:39:37;;;;;;;5.43;3.23;;;7.30;93.40;;;;;;10410822;28;20244;-69
2022/04/19 04:44:38;;;;;;;5.47;3.03;;;7.30;93.60;;;;;;10434191;28;20239;-70
2022/04/19 04:49:41;;;;;;;3.90;3.00;;;7.30;94.50;;;;;;10433615;28;20235;-71
2022/04/19 04:54:43;;;;;;;5.27;3.27;;;7.30;94.50;;;;;;10426813;28;20234;-71
2022/04/19 04:59:44;;;;;;;3.80;2.73;;;7.40;94.70;;;;;;10416410;28;20313;-70
2022/04/19 05:04:45;;;;;;;4.30;3.10;;;7.50;94.70;;;;;;10434085;28;20224;-69
2022/04/19 05:09:45;;;;;;;6.63;3.07;;;7.60;94.70;;;;;;10419342;28;20650;-69
2022/04/19 05:14:46;;;;;;;6.10;3.47;;;7.70;94.40;;;;;;10436610;28;20270;-70
2022/04/19 05:19:46;;;;;;;4.73;3.20;;;7.80;94.30;;;;;;10412722;28;20637;-71
2022/04/19 05:24:47;;;;;;;4.30;3.13;;;7.90;93.90;;;;;;10429196;28;20298;-70
2022/04/19 05:29:48;;;;;;;4.33;3.10;;;8.10;93.30;;;;;;10430711;28;20220;-71
2022/04/19 05:34:49;;;;;;;8.57;3.23;;;8.20;92.70;;;;;;10424275;28;20224;-70
2022/04/19 05:39:50;;;;;;;12.00;4.00;;;8.60;91.90;;;;;;10432764;28;20787;-71
2022/04/19 05:44:50;;;;;;;9.60;4.00;;;9.70;88.00;;;;;;10422354;28;20308;-72
2022/04/19 05:49:51;;;;;;;6.67;3.57;;;10.30;85.20;;;;;;10433119;28;20217;-71
2022/04/19 05:54:51;;;;;;;9.47;3.80;;;10.40;84.20;;;;;;10434721;28;20362;-70
2022/04/19 05:59:52;;;;;;;7.60;3.20;;;11.20;82.00;;;;;;10429035;28;20248;-69
2022/04/19 06:04:53;;;;;;;6.57;3.63;;;12.80;71.60;;;;;;10436718;28;20892;-72
2022/04/19 06:09:53;;;;;;;6.60;3.63;;;13.70;68.70;;;;;;10443615;28;20580;-73
2022/04/19 06:14:54;;;;;;;7.77;3.30;;;15.30;61.90;;;;;;10443708;28;20222;-73
2022/04/19 06:19:54;;;;;;;8.00;3.57;;;17.00;56.90;;;;;;10441185;28;20266;-71
2022/04/19 06:24:55;;;;;;;5.43;3.13;;;17.10;54.00;;;;;;10440251;28;20219;-70
2022/04/19 06:29:57;;;;;;;4.47;3.20;;;17.30;53.60;;;;;;10436252;28;20265;-72
2022/04/19 06:34:58;;;;;;;8.07;3.37;;;17.90;52.30;;;;;;10418397;28;20220;-70
2022/04/19 06:40:03;;;;;;;3.37;3.00;;;17.30;52.20;;;;;;10440803;28;20315;-72
2022/04/19 06:45:04;;;;;;;9.87;3.17;;;16.60;54.00;;;;;;10431625;28;20217;-69
2022/04/19 06:50:06;;;;;;;5.00;3.23;;;17.00;53.30;;;;;;10418691;28;20221;-71
2022/04/19 06:55:07;;;;;;;11.90;3.40;;;17.80;51.40;;;;;;10433213;28;20291;-72
2022/04/19 07:00:08;;;;;;;4.07;3.03;;;16.40;52.90;;;;;;10413073;28;20731;-72
2022/04/19 07:05:10;;;;;;;5.43;3.77;;;14.80;56.10;;;;;;10431101;28;20195;-70
2022/04/19 07:10:11;;;;;;;6.43;3.30;;;14.00;59.60;;;;;;10436200;28;20214;-73
2022/04/19 07:15:12;;;;;;;4.67;3.20;;;13.40;61.60;;;;;;10438450;28;20183;-70
2022/04/19 07:30:54;;;;;;;6.60;3.73;;;13.80;60.80;;;;;;10437258;28;20224;-69
2022/04/19 07:35:55;;;;;;;7.40;3.93;;;14.50;58.10;;;;;;10429623;28;20230;-70
2022/04/19 07:40:55;;;;;;;7.83;4.00;;;16.90;53.30;;;;;;10424115;28;20224;-70
2022/04/19 07:45:56;;;;;;;6.73;3.93;;;19.90;46.50;;;;;;10433333;28;20254;-68
2022/04/19 07:50:57;;;;;;;4.83;3.70;;;21.60;42.70;;;;;;10418959;28;20296;-70
2022/04/19 07:55:58;;;;;;;7.43;3.90;;;23.30;38.70;;;;;;10413828;28;20255;-68
2022/04/19 08:00:59;;;;;;;6.53;3.83;;;23.70;38.60;;;;;;10414819;28;20251;-67
2022/04/19 08:06:00;;;;;;;6.07;4.07;;;23.70;36.50;;;;;;10446470;28;20938;-70
2022/04/19 08:11:04;;;;;;;6.17;3.90;;;24.30;36.30;;;;;;10445423;28;20315;-73
2022/04/19 08:16:05;;;;;;;4.97;3.80;;;24.70;35.30;;;;;;10445093;28;20231;-72
2022/04/19 08:21:06;;;;;;;7.10;3.80;;;26.10;34.40;;;;;;10440519;28;20228;-74
2022/04/19 08:26:07;;;;;;;5.50;4.13;;;26.60;32.30;;;;;;10452161;28;20589;-74
2022/04/19 08:31:09;;;;;;;8.07;4.10;;;27.10;30.70;;;;;;10416169;28;20223;-74
2022/04/19 08:36:11;;;;;;;7.30;4.90;;;27.60;31.10;;;;;;10414127;28;20239;-76
2022/04/19 08:41:17;;;;;;;5.77;4.17;;;27.80;29.20;;;;;;10409260;28;20289;-70
2022/04/19 08:46:19;;;;;;;4.70;3.87;;;28.00;29.70;;;;;;10409469;28;20228;-74
2022/04/19 08:51:25;;;;;;;5.57;4.40;;;30.40;28.40;;;;;;10423403;28;20280;-71
2022/04/19 09:01:45;;;;;;;5.10;4.47;;;32.20;26.30;;;;;;10426100;28;20319;-75
2022/04/19 09:06:56;;;;;;;6.90;5.40;;;32.70;25.00;;;;;;10415440;28;20322;-74
2022/04/19 09:12:13;;;;;;;6.83;5.10;;;29.50;25.80;;;;;;10419650;28;20265;-74
2022/04/19 09:17:13;;;;;;;7.17;5.60;;;28.80;27.00;;;;;;10425427;28;20223;-72
2022/04/19 09:22:25;;;;;;;9.30;6.00;;;28.90;26.90;;;;;;10434486;28;20235;-72
2022/04/19 09:27:33;;;;;;;7.60;6.20;;;26.80;28.60;;;;;;10426022;28;20224;-72
2022/04/19 09:32:35;;;;;;;9.90;6.27;;;25.50;30.20;;;;;;10427354;28;20216;-72
2022/04/19 09:37:36;;;;;;;7.17;5.60;;;25.20;30.10;;;;;;10433109;28;20639;-72
2022/04/19 09:42:37;;;;;;;6.63;5.67;;;25.60;30.00;;;;;;10416354;28;20238;-71
2022/04/19 09:47:50;;;;;;;7.37;6.17;;;26.50;29.20;;;;;;10442612;28;20322;-70
2022/04/19 09:52:51;;;;;;;7.83;6.87;;;27.30;28.20;;;;;;10416457;28;20235;-71
2022/04/19 09:57:52;;;;;;;6.70;6.07;;;29.40;26.80;;;;;;10437103;28;20227;-73
2022/04/19 10:08:19;;;;;;;8.03;7.33;;;31.60;24.10;;;;;;10458090;28;20220;-73
2022/04/19 10:13:24;;;;;;;9.93;7.87;;;30.30;25.40;;;;;;10423199;28;20365;-73
2022/04/19 10:18:24;;;;;;;7.87;7.07;;;29.50;25.30;;;;;;10447569;28;20234;-73
2022/04/19 10:23:39;;;;;;;11.73;7.57;;;29.60;26.20;;;;;;10453142;28;20223;-75
2022/04/19 10:28:40;;;;;;;8.07;7.27;;;29.30;26.00;;;;;;10415920;28;20250;-74
2022/04/19 10:33:49;;;;;;;9.50;7.80;;;30.70;25.10;;;;;;10419830;28;20300;-75
2022/04/19 10:39:11;;;;;;;8.40;7.67;;;33.90;23.60;;;;;;10426050;28;20220;-73
2022/04/19 10:44:24;;;;;;;7.97;7.13;;;30.60;24.70;;;;;;10435976;28;20221;-74
2022/04/19 10:49:25;;;;;;;8.17;7.37;;;30.40;24.80;;;;;;10411504;28;20228;-74
2022/04/19 10:55:03;;;;;;;7.43;6.40;;;32.90;23.60;;;;;;10426308;28;20223;-74
2022/04/19 11:00:46;;;;;;;10.30;7.00;;;34.70;23.00;;;;;;10430617;28;20228;-74
2022/04/19 11:05:52;;;;;;;7.60;6.83;;;32.00;23.20;;;;;;10332513;28;20224;-73
2022/04/19 11:11:23;;;;;;;7.47;6.77;;;26.50;27.40;;;;;;10418257;28;20623;-71
2022/04/19 11:16:37;;;;;;;9.37;7.27;;;24.20;32.90;;;;;;10436570;28;20243;-71
2022/04/19 11:21:48;;;;;;;8.70;7.33;;;23.00;32.70;;;;;;10443501;28;20225;-70
2022/04/19 11:26:49;;;;;;;7.20;6.17;;;22.20;34.30;;;;;;10440624;28;20222;-71
2022/04/19 11:31:49;;;;;;;11.63;6.37;;;22.00;34.60;;;;;;10430684;28;20224;-71
2022/04/19 11:36:57;;;;;;;9.33;6.53;;;21.40;35.30;;;;;;10432107;28;20239;-72
2022/04/19 11:47:16;;;;;;;7.60;5.23;;;21.10;34.30;;;;;;10435027;28;20220;-73
2022/04/19 11:52:17;;;;;;;6.60;5.20;;;20.80;36.60;;;;;;10436188;28;20326;-72
2022/04/19 11:57:18;;;;;;;10.80;6.23;;;20.90;35.80;;;;;;10429126;28;20220;-74
2022/04/19 12:02:22;;;;;;;7.33;5.90;;;20.40;37.90;;;;;;10426389;28;20235;-72
2022/04/19 12:07:32;;;;;;;7.03;6.00;;;20.30;37.30;;;;;;10425654;28;20273;-73
2022/04/19 12:12:33;;;;;;;6.10;5.40;;;20.50;37.70;;;;;;10428367;28;20722;-72
2022/04/19 12:17:44;;;;;;;7.90;5.77;;;20.40;37.50;;;;;;10420689;28;20821;-72
2022/04/19 12:22:48;;;;;;;6.33;5.07;;;20.40;38.30;;;;;;10430559;28;20665;-73
2022/04/19 12:27:51;;;;;;;4.70;3.90;;;20.20;36.60;;;;;;10433614;28;20746;-73
2022/04/19 12:32:59;;;;;;;5.10;4.03;;;20.20;35.50;;;;;;10420544;28;20240;-75
2022/04/19 12:38:09;;;;;;;6.97;4.20;;;20.10;36.80;;;;;;10440803;28;20220;-74
2022/04/19 12:43:10;;;;;;;5.43;4.53;;;19.90;38.00;;;;;;10412476;28;20374;-74
2022/04/19 12:48:22;;;;;;;6.50;4.33;;;19.70;38.40;;;;;;10425252;28;20257;-74
2022/04/19 12:53:24;;;;;;;5.77;4.40;;;19.80;38.20;;;;;;10428214;28;20227;-73
2022/04/19 12:58:24;;;;;;;5.33;3.70;;;19.70;38.20;;;;;;10428431;28;20234;-74
2022/04/19 13:03:25;;;;;;;4.93;3.47;;;19.60;38.90;;;;;;10444810;28;20208;-75
2022/04/19 13:13:49;;;;;;;7.63;3.93;;;19.70;38.90;;;;;;10433702;28;20220;-72
2022/04/19 13:18:50;;;;;;;5.13;3.40;;;19.70;40.00;;;;;;10447638;28;20220;-73
2022/04/19 13:23:51;;;;;;;5.20;3.40;;;19.80;39.60;;;;;;10450999;28;20227;-73
2022/04/19 13:28:53;;;;;;;3.63;3.33;;;19.50;40.80;;;;;;10428241;28;20219;-73
2022/04/19 13:33:53;;;;;;;4.37;3.00;;;19.80;40.90;;;;;;10432610;28;20640;-71
2022/04/19 13:38:55;;;;;;;6.50;3.00;;;19.90;41.30;;;;;;10449265;28;20310;-73
2022/04/19 13:43:56;;;;;;;4.27;3.10;;;20.00;41.10;;;;;;10435810;28;20645;-72
2022/04/19 13:48:56;;;;;;;5.07;3.60;;;19.90;41.60;;;;;;10444605;28;20220;-72
2022/04/19 13:53:57;;;;;;;3.73;3.00;;;19.80;41.30;;;;;;10447068;28;20239;-72
2022/04/19 13:58:58;;;;;;;4.33;2.80;;;19.70;41.40;;;;;;10423432;28;20243;-71
2022/04/19 14:03:59;;;;;;;4.43;2.70;;;19.60;42.00;;;;;;10428131;28;20212;-73
2022/04/19 14:08:59;;;;;;;2.63;2.40;;;19.60;41.60;;;;;;10440896;28;20412;-70
2022/04/19 14:14:01;;;;;;;4.17;2.40;;;19.50;41.20;;;;;;10431120;28;20220;-70
2022/04/19 14:19:04;;;;;;;2.03;1.83;;;19.60;41.50;;;;;;10425629;28;20678;-72
2022/04/19 14:24:04;;;;;;;2.97;2.43;;;19.70;41.40;;;;;;10430047;28;20731;-73
2022/04/19 14:34:25;;;;;;;2.57;2.30;;;19.70;42.40;;;;;;10439615;28;20227;-71
2022/04/19 14:39:30;;;;;;;2.17;1.97;;;19.40;42.90;;;;;;10442960;28;20227;-73
2022/04/19 14:44:31;;;;;;;2.57;2.00;;;19.60;43.00;;;;;;10437970;28;20269;-71
2022/04/19 14:49:31;;;;;;;2.03;1.67;;;19.80;42.80;;;;;;10435713;28;20355;-71
2022/04/19 14:54:32;;;;;;;2.80;1.93;;;19.80;43.60;;;;;;10438055;28;20231;-71
2022/04/19 14:59:33;;;;;;;2.10;1.90;;;19.70;43.70;;;;;;10429933;28;20234;-71
2022/04/19 15:04:34;;;;;;;3.00;1.87;;;19.30;44.30;;;;;;10438535;28;20219;-72
2022/04/19 15:09:34;;;;;;;2.13;1.60;;;19.30;44.30;;;;;;10437674;28;20212;-71
2022/04/19 15:14:38;;;;;;;2.10;1.90;;;19.50;44.10;;;;;;10445715;28;20320;-71
2022/04/19 15:19:39;;;;;;;2.33;1.80;;;19.50;43.50;;;;;;10437357;28;20223;-69
2022/04/19 15:24:40;;;;;;;2.20;1.63;;;19.30;43.60;;;;;;10437044;28;20241;-70
2022/04/19 15:29:41;;;;;;;2.97;2.03;;;19.20;44.10;;;;;;10428089;28;20298;-70
2022/04/19 15:34:41;;;;;;;1.80;1.60;;;19.10;45.00;;;;;;10431105;28;20220;-70
2022/04/19 15:39:42;;;;;;;1.90;1.60;;;19.20;45.60;;;;;;10435951;28;20322;-71
2022/04/19 15:44:43;;;;;;;2.33;1.70;;;19.20;45.10;;;;;;10436705;28;20215;-70
2022/04/19 15:49:44;;;;;;;2.10;1.60;;;19.10;44.90;;;;;;10433435;28;20279;-71
2022/04/19 15:54:44;;;;;;;2.70;1.80;;;19.10;45.30;;;;;;10442567;28;20704;-72
2022/04/19 15:59:45;;;;;;;2.27;1.30;;;19.10;45.80;;;;;;10432133;28;20230;-72
2022/04/19 16:04:46;;;;;;;2.70;1.50;;;18.90;46.00;;;;;;10445361;28;20226;-72
2022/04/19 16:09:50;;;;;;;2.50;1.60;;;18.80;46.20;;;;;;10436525;28;20223;-71
2022/04/19 16:14:51;;;;;;;2.00;1.80;;;18.70;46.50;;;;;;10432979;28;20223;-70
2022/04/19 16:25:11;;;;;;;2.00;1.40;;;18.60;47.50;;;;;;10433028;28;20212;-71
2022/04/19 16:30:13;;;;;;;2.60;1.33;;;18.60;47.50;;;;;;10438041;28;20185;-71
2022/04/19 16:35:14;;;;;;;8.83;1.40;;;18.50;47.40;;;;;;10422636;28;20211;-71
2022/04/19 16:40:14;;;;;;;1.33;1.10;;;18.20;47.70;;;;;;10433902;28;20312;-71
2022/04/19 16:45:15;;;;;;;2.27;1.30;;;18.10;48.10;;;;;;10448061;28;20195;-72
2022/04/19 16:50:17;;;;;;;4.00;1.40;;;18.00;48.80;;;;;;10451155;28;20556;-71
2022/04/19 16:55:18;;;;;;;1.47;1.03;;;17.90;49.60;;;;;;10447125;28;20218;-72
2022/04/19 17:00:18;;;;;;;1.87;0.77;;;17.80;49.10;;;;;;10426822;28;20214;-72
2022/04/19 17:05:19;;;;;;;1.47;0.83;;;17.60;47.70;;;;;;10451576;28;20623;-72
2022/04/19 17:10:20;;;;;;;3.50;0.90;;;17.40;47.40;;;;;;10434768;28;20194;-73
2022/04/19 17:15:20;;;;;;;3.33;1.00;;;17.30;47.80;;;;;;10427752;28;20206;-72
2022/04/19 17:20:23;;;;;;;1.30;0.90;;;17.20;47.90;;;;;;10424107;28;20316;-72
2022/04/19 17:25:23;;;;;;;5.40;1.00;;;17.10;47.80;;;;;;10435051;28;20247;-71
2022/04/19 17:30:24;;;;;;;5.93;0.80;;;17.00;48.10;;;;;;10429347;28;20305;-72
2022/04/19 17:35:25;;;;;;;1.17;0.80;;;17.00;47.70;;;;;;10440949;28;20625;-71
2022/04/19 17:40:25;;;;;;;2.77;1.10;;;16.90;47.10;;;;;;10434311;28;20215;-72
2022/04/19 17:45:27;;;;;;;4.63;1.00;;;16.80;46.70;;;;;;10425270;28;20751;-73
2022/04/19 18:01:10;;;;;;;1.23;0.50;;;16.50;45.50;;;;;;10439957;28;20234;-72
2022/04/19 18:06:11;;;;;;;1.47;0.43;;;16.40;44.70;;;;;;10434694;28;20227;-72
2022/04/19 18:11:12;;;;;;;4.43;0.80;;;16.20;44.40;;;;;;10420749;28;20226;-73
2022/04/19 18:16:16;;;;;;;1.03;0.80;;;16.10;44.90;;;;;;10440762;28;20731;-72
2022/04/19 18:21:17;;;;;;;3.00;0.73;;;16.00;44.60;;;;;;10435418;28;20216;-72
2022/04/19 18:26:18;;;;;;;0.97;0.57;;;15.90;44.90;;;;;;10450216;28;20227;-72
2022/04/19 18:31:20;;;;;;;1.90;0.80;;;15.80;45.30;;;;;;10432011;28;20694;-72
2022/04/19 18:36:21;;;;;;;3.73;1.03;;;15.70;45.60;;;;;;10422449;28;20226;-71
2022/04/19 18:41:25;;;;;;;1.27;0.93;;;15.50;46.10;;;;;;10440090;28;20257;-73
2022/04/19 18:46:25;;;;;;;1.80;1.10;;;15.40;45.40;;;;;;10415122;28;20898;-72
2022/04/19 18:51:26;;;;;;;3.77;1.00;;;15.30;45.10;;;;;;10421785;28;20239;-73
2022/04/19 18:56:26;;;;;;;1.57;1.00;;;15.20;44.50;;;;;;10447180;28;20830;-72
2022/04/19 19:01:27;;;;;;;5.00;1.30;;;15.10;44.20;;;;;;10441561;28;20314;-72
2022/04/19 19:06:27;;;;;;;2.30;0.90;;;15.00;44.40;;;;;;10421611;28;20638;-72
2022/04/19 19:11:28;;;;;;;0.70;0.70;;;14.90;44.30;;;;;;10413075;28;20232;-72
2022/04/19 19:16:31;;;;;;;1.93;1.00;;;14.80;44.80;;;;;;10440177;28;20227;-73
2022/04/19 19:21:33;;;;;;;1.60;1.03;;;14.70;45.10;;;;;;10438746;28;20634;-72
2022/04/19 19:26:34;;;;;;;2.73;0.87;;;14.50;45.30;;;;;;10415534;28;20270;-72
2022/04/19 19:31:36;;;;;;;5.67;1.00;;;14.50;45.60;;;;;;10447070;28;20346;-72
2022/04/19 19:36:36;;;;;;;2.20;1.40;;;14.40;45.80;;;;;;10419882;28;20689;-72
2022/04/19 19:41:40;;;;;;;2.00;1.17;;;14.30;46.20;;;;;;10423098;28;20378;-73
2022/04/19 19:46:40;;;;;;;1.23;0.87;;;14.20;46.40;;;;;;10437810;28;20228;-74
2022/04/19 19:51:42;;;;;;;2.10;0.87;;;14.10;46.60;;;;;;10432560;28;20347;-71
2022/04/19 19:56:43;;;;;;;1.67;0.90;;;14.10;46.90;;;;;;10420478;28;20272;-74
2022/04/19 20:01:44;;;;;;;4.80;0.97;;;14.00;47.60;;;;;;10419217;28;20245;-73
2022/04/19 20:06:44;;;;;;;2.57;1.20;;;13.90;47.00;;;;;;10428967;28;20750;-73
2022/04/19 20:11:45;;;;;;;1.67;0.90;;;13.80;47.10;;;;;;10428021;28;20228;-71
2022/04/19 20:16:45;;;;;;;1.33;0.97;;;13.70;47.20;;;;;;10440021;28;20227;-73
2022/04/19 20:21:46;;;;;;;5.13;1.40;;;13.60;47.70;;;;;;10426690;28;20227;-72
2022/04/19 20:26:47;;;;;;;2.17;1.13;;;13.60;47.90;;;;;;10426570;28;20323;-72
2022/04/19 20:31:48;;;;;;;2.70;1.20;;;13.50;48.40;;;;;;10428186;28;20334;-72
2022/04/19 20:36:48;;;;;;;4.50;1.40;;;13.40;48.70;;;;;;10440729;28;20224;-73
2022/04/19 20:41:49;;;;;;;1.83;1.13;;;13.30;49.00;;;;;;10449205;28;20216;-71
2022/04/19 20:52:09;;;;;;;3.60;2.00;;;13.20;49.80;;;;;;10433092;28;20306;-70
2022/04/19 20:57:10;;;;;;;6.83;1.57;;;13.10;50.10;;;;;;10442317;28;20312;-72
2022/04/19 21:02:10;;;;;;;2.43;1.87;;;13.00;50.50;;;;;;10443950;28;20228;-76
2022/04/19 21:07:15;;;;;;;3.43;1.73;;;12.90;50.60;;;;;;10424893;28;20232;-70
2022/04/19 21:12:16;;;;;;;3.70;1.60;;;12.80;51.10;;;;;;10444214;28;20216;-71
2022/04/19 21:17:17;;;;;;;4.93;2.10;;;12.70;51.40;;;;;;10436869;28;20410;-74
2022/04/19 21:22:18;;;;;;;3.87;1.87;;;12.70;51.60;;;;;;10426654;28;20235;-73
2022/04/19 21:27:18;;;;;;;6.50;2.30;;;12.50;51.80;;;;;;10434574;28;20311;-73
2022/04/19 21:32:22;;;;;;;3.40;2.17;;;12.40;51.90;;;;;;10432295;28;20227;-70
2022/04/19 21:37:23;;;;;;;4.70;2.13;;;12.40;52.20;;;;;;10427698;28;20220;-70
2022/04/19 21:42:24;;;;;;;2.20;2.00;;;12.30;52.50;;;;;;10435065;28;20248;-70
2022/04/19 21:47:25;;;;;;;3.27;1.97;;;12.20;52.60;;;;;;10434654;28;20303;-73
2022/04/19 21:52:25;;;;;;;3.30;1.90;;;12.10;53.00;;;;;;10425121;28;20232;-72
2022/04/19 21:57:26;;;;;;;4.03;1.97;;;12.00;52.80;;;;;;10436837;28;20311;-73
2022/04/19 22:02:27;;;;;;;2.03;1.83;;;11.90;52.90;;;;;;10425750;28;20225;-71
2022/04/19 22:07:27;;;;;;;3.60;1.80;;;11.90;52.90;;;;;;10415379;28;20251;-71
2022/04/19 22:12:28;;;;;;;1.83;1.73;;;11.80;52.90;;;;;;10434591;28;20231;-71
2022/04/19 22:17:28;;;;;;;4.27;2.10;;;11.70;53.10;;;;;;10426453;28;20220;-72
2022/04/19 22:22:29;;;;;;;2.17;1.87;;;11.70;53.30;;;;;;10434567;28;20224;-69
2022/04/19 22:27:30;;;;;;;3.17;1.80;;;11.60;53.30;;;;;;10440494;28;20243;-69
2022/04/19 22:32:30;;;;;;;2.80;2.20;;;11.50;54.20;;;;;;10419477;28;20232;-70
2022/04/19 22:37:31;;;;;;;3.70;2.40;;;11.50;53.70;;;;;;10427551;28;20222;-70
2022/04/19 22:42:32;;;;;;;2.40;2.10;;;11.40;53.80;;;;;;10432881;28;20227;-70
2022/04/19 22:47:33;;;;;;;2.27;1.77;;;11.30;53.80;;;;;;10436917;28;20225;-72
2022/04/19 22:52:34;;;;;;;2.10;1.50;;;11.30;53.80;;;;;;10422405;28;20252;-72
2022/04/19 22:57:34;;;;;;;2.90;1.90;;;11.20;54.10;;;;;;10438384;28;20270;-71
2022/04/19 23:02:35;;;;;;;4.10;2.00;;;11.10;54.40;;;;;;10434106;28;20691;-71
2022/04/19 23:07:36;;;;;;;3.50;2.03;;;11.00;54.60;;;;;;10425023;28;20729;-72
2022/04/19 23:12:37;;;;;;;2.27;1.93;;;11.00;54.80;;;;;;10445865;28;20251;-70
2022/04/19 23:17:37;;;;;;;2.87;2.30;;;11.00;55.10;;;;;;10439181;28;20219;-69
2022/04/19 23:22:38;;;;;;;2.93;2.10;;;10.90;55.60;;;;;;10439905;28;20220;-70
2022/04/19 23:27:56;;;;;;;5.77;2.20;;;10.80;56.10;;;;;;10429816;28;20307;-69
2022/04/19 23:32:57;;;;;;;2.80;2.10;;;10.70;56.50;;;;;;10438819;28;20235;-70
2022/04/19 23:37:57;;;;;;;4.70;1.87;;;10.60;56.60;;;;;;10434383;28;20224;-72
2022/04/19 23:42:58;;;;;;;3.57;2.20;;;10.60;57.10;;;;;;10432950;28;20243;-71
2022/04/19 23:47:59;;;;;;;3.13;2.10;;;10.40;57.40;;;;;;10417614;28;20282;-69
2022/04/19 23:52:59;;;;;;;3.10;2.13;;;10.30;57.90;;;;;;10433088;28;20301;-71
2022/04/19 23:58:00;;;;;;;2.30;2.10;;;10.10;58.20;;;;;;10432836;28;20227;-69
